Time;durP1;ratioP1;P1;durP2;ratioP2;P2;SDS_P1;SDS_P2;PMS_P1;PMS_P2;Temp;Humidity;BMP_temperature;BMP_pressure;BME280_temperature;BME280_humidity;BME280_pressure;Samples;Min_cycle;Max_cycle;Signal;HPM_P1;HPM_P2
2023/03/01 00:00:03;;;;;;;2.30;2.00;;;;;;;;;;10213151;28;20214;-71
2023/03/01 00:05:12;;;;;;;2.53;1.70;;;;;;;;;;10209317;28;20979;-75
2023/03/01 00:10:13;;;;;;;2.90;1.83;;;;;;;;;;10212741;28;20198;-73
2023/03/01 00:15:14;;;;;;;2.80;2.07;;;;;;;;;;10212190;28;20798;-72
2023/03/01 00:20:16;;;;;;;2.03;1.53;;;;;;;;;;10212562;28;20345;-71
2023/03/01 00:25:17;;;;;;;1.70;1.37;;;;;;;;;;10203072;28;20186;-70
2023/03/01 00:30:18;;;;;;;1.30;1.23;;;;;;;;;;10209836;28;20261;-74
2023/03/01 00:35:20;;;;;;;2.73;1.80;;;;;;;;;;10213477;28;20642;-71
2023/03/01 00:40:21;;;;;;;2.43;1.77;;;;;;;;;;10214353;28;20206;-69
2023/03/01 00:45:22;;;;;;;2.83;1.50;;;;;;;;;;10195510;28;20277;-75
2023/03/01 00:50:23;;;;;;;1.33;1.23;;;;;;;;;;10216188;28;20233;-71
2023/03/01 00:55:25;;;;;;;2.03;1.73;;;;;;;;;;10180862;28;20222;-72
2023/03/01 01:00:27;;;;;;;2.87;1.27;;;;;;;;;;10208846;28;20284;-74
2023/03/01 01:05:28;;;;;;;5.93;1.63;;;;;;;;;;10202362;28;20210;-73
2023/03/01 01:10:29;;;;;;;1.63;1.57;;;;;;;;;;10210109;28;20246;-70
2023/03/01 01:15:34;;;;;;;1.83;1.57;;;;;;;;;;10214305;28;20225;-71
2023/03/01 01:20:36;;;;;;;1.57;1.47;;;;;;;;;;10214891;28;20238;-71
2023/03/01 01:25:37;;;;;;;3.27;1.80;;;;;;;;;;10196363;28;20214;-73
2023/03/01 01:30:38;;;;;;;1.57;1.50;;;;;;;;;;10210142;28;20948;-74
2023/03/01 01:35:39;;;;;;;1.60;1.40;;;;;;;;;;10189391;28;20314;-72
2023/03/01 01:40:47;;;;;;;2.60;1.40;;;;;;;;;;10198073;28;20214;-74
2023/03/01 01:45:48;;;;;;;2.70;2.13;;;;;;;;;;10207782;28;20292;-73
2023/03/01 01:50:54;;;;;;;1.27;1.27;;;;;;;;;;10208783;28;20218;-72
2023/03/01 01:55:58;;;;;;;1.47;1.00;;;;;;;;;;10203343;28;20237;-72
2023/03/01 02:01:01;;;;;;;1.93;1.83;;;;;;;;;;10203305;28;20233;-76
2023/03/01 02:06:03;;;;;;;1.63;1.37;;;;;;;;;;10199369;28;20585;-70
2023/03/01 02:11:04;;;;;;;4.17;1.60;;;;;;;;;;10202997;28;20831;-76
2023/03/01 02:16:13;;;;;;;3.03;2.03;;;;;;;;;;10183854;28;20226;-72
2023/03/01 02:21:25;;;;;;;2.00;1.90;;;;;;;;;;10203127;28;20273;-74
2023/03/01 02:26:33;;;;;;;2.67;1.30;;;;;;;;;;10204327;28;20213;-76
2023/03/01 02:31:41;;;;;;;1.63;1.33;;;;;;;;;;10190383;28;20233;-73
2023/03/01 02:36:47;;;;;;;1.57;1.23;;;;;;;;;;10201725;28;20234;-74
2023/03/01 02:41:50;;;;;;;7.40;2.43;;;;;;;;;;10188693;28;20979;-73
2023/03/01 02:46:53;;;;;;;1.67;1.57;;;;;;;;;;10185311;28;20250;-76
2023/03/01 02:52:13;;;;;;;2.97;1.60;;;;;;;;;;10200933;28;20223;-74
2023/03/01 02:57:15;;;;;;;1.83;1.40;;;;;;;;;;10197726;28;20225;-74
2023/03/01 03:02:35;;;;;;;5.03;1.43;;;;;;;;;;10196601;28;20983;-76
2023/03/01 03:07:38;;;;;;;2.13;1.30;;;;;;;;;;10197162;28;20313;-74
2023/03/01 03:12:39;;;;;;;3.73;1.73;;;;;;;;;;10188674;28;20245;-71
2023/03/01 03:17:42;;;;;;;4.00;1.57;;;;;;;;;;10195529;28;20771;-73
2023/03/01 03:22:43;;;;;;;2.23;1.40;;;;;;;;;;10199775;28;20345;-71
2023/03/01 03:27:45;;;;;;;1.13;0.93;;;;;;;;;;10197402;28;20234;-76
2023/03/01 03:32:50;;;;;;;1.13;1.07;;;;;;;;;;10189545;28;21026;-80
2023/03/01 03:38:01;;;;;;;1.90;1.80;;;;;;;;;;10185772;28;20832;-74
2023/03/01 03:43:03;;;;;;;1.63;1.30;;;;;;;;;;10210318;28;22043;-78
2023/03/01 03:48:06;;;;;;;3.40;1.03;;;;;;;;;;10206263;28;20222;-73
2023/03/01 03:53:11;;;;;;;1.47;1.00;;;;;;;;;;10216428;28;20214;-74
2023/03/01 03:58:12;;;;;;;1.67;1.03;;;;;;;;;;10209717;28;20246;-76
2023/03/01 04:03:15;;;;;;;2.63;1.40;;;;;;;;;;10213120;28;20214;-75
2023/03/01 04:08:19;;;;;;;3.53;1.60;;;;;;;;;;10213089;28;20603;-75
2023/03/01 04:13:21;;;;;;;1.40;1.30;;;;;;;;;;10213359;28;20376;-77
2023/03/01 04:18:24;;;;;;;1.60;1.37;;;;;;;;;;10228350;28;20221;-73
2023/03/01 04:23:25;;;;;;;3.43;1.17;;;;;;;;;;10213787;28;20803;-76
2023/03/01 04:28:33;;;;;;;1.90;1.00;;;;;;;;;;10181764;28;20691;-76
2023/03/01 04:33:34;;;;;;;1.33;1.23;;;;;;;;;;10208766;28;20227;-76
2023/03/01 04:38:37;;;;;;;5.53;1.50;;;;;;;;;;10190324;28;20225;-77
2023/03/01 04:43:38;;;;;;;1.53;1.43;;;;;;;;;;10214656;28;20218;-74
2023/03/01 04:48:41;;;;;;;1.03;1.03;;;;;;;;;;10203318;28;20229;-75
2023/03/01 04:53:43;;;;;;;1.77;1.63;;;;;;;;;;10212440;28;20222;-73
2023/03/01 04:58:44;;;;;;;1.47;1.20;;;;;;;;;;10207228;28;20227;-75
2023/03/01 05:03:47;;;;;;;2.30;1.60;;;;;;;;;;10211007;28;20215;-76
2023/03/01 05:08:48;;;;;;;4.87;1.43;;;;;;;;;;10212566;28;20253;-75
2023/03/01 05:13:54;;;;;;;2.13;1.60;;;;;;;;;;10212395;28;20611;-74
2023/03/01 05:18:56;;;;;;;4.03;1.80;;;;;;;;;;10208731;28;20215;-77
2023/03/01 05:23:57;;;;;;;2.73;1.50;;;;;;;;;;10209953;28;20277;-74
2023/03/01 05:28:58;;;;;;;2.37;2.23;;;;;;;;;;10212850;28;20218;-77
2023/03/01 05:34:00;;;;;;;1.67;1.40;;;;;;;;;;10192716;28;20310;-77
2023/03/01 05:39:01;;;;;;;1.53;1.43;;;;;;;;;;10208916;28;20214;-78
2023/03/01 05:44:04;;;;;;;6.00;1.50;;;;;;;;;;10196822;28;20328;-77
2023/03/01 05:49:05;;;;;;;1.83;1.63;;;;;;;;;;10201709;28;20234;-74
2023/03/01 05:54:07;;;;;;;5.60;1.77;;;;;;;;;;10195097;28;20211;-80
2023/03/01 05:59:08;;;;;;;1.93;1.83;;;;;;;;;;10184978;28;20288;-75
2023/03/01 06:04:09;;;;;;;3.73;1.67;;;;;;;;;;10194241;28;20210;-75
2023/03/01 06:09:11;;;;;;;3.27;1.87;;;;;;;;;;10199157;28;20222;-73
2023/03/01 06:14:14;;;;;;;1.87;1.03;;;;;;;;;;10200862;28;20254;-77
2023/03/01 06:19:15;;;;;;;1.60;1.50;;;;;;;;;;10200450;28;20246;-77
2023/03/01 06:24:16;;;;;;;2.27;1.40;;;;;;;;;;10199370;28;21004;-76
2023/03/01 06:29:17;;;;;;;1.60;1.50;;;;;;;;;;10197569;28;20854;-75
2023/03/01 06:34:19;;;;;;;1.97;1.30;;;;;;;;;;10189159;28;20846;-79
2023/03/01 06:39:20;;;;;;;4.90;1.40;;;;;;;;;;10189626;28;20210;-78
2023/03/01 06:44:21;;;;;;;1.83;1.40;;;;;;;;;;10200218;28;20215;-75
2023/03/01 06:49:22;;;;;;;1.93;1.40;;;;;;;;;;10196681;28;20945;-76
2023/03/01 06:54:24;;;;;;;1.70;1.60;;;;;;;;;;10180688;28;20302;-72
2023/03/01 06:59:25;;;;;;;2.90;1.47;;;;;;;;;;10191303;28;20221;-75
2023/03/01 07:04:28;;;;;;;1.57;1.47;;;;;;;;;;10205778;28;20292;-71
2023/03/01 07:09:29;;;;;;;6.90;2.23;;;;;;;;;;10206816;28;20226;-74
2023/03/01 07:14:30;;;;;;;3.13;1.60;;;;;;;;;;10197851;28;20229;-72
2023/03/01 07:19:32;;;;;;;2.73;1.77;;;;;;;;;;10215968;28;20337;-74
2023/03/01 07:24:33;;;;;;;6.07;2.40;;;;;;;;;;10206638;28;20302;-74
2023/03/01 07:29:38;;;;;;;1.87;1.70;;;;;;;;;;10214130;28;20214;-75
2023/03/01 07:34:39;;;;;;;3.27;1.57;;;;;;;;;;10207644;28;20231;-79
2023/03/01 07:39:41;;;;;;;4.60;2.20;;;;;;;;;;10202953;28;20252;-74
2023/03/01 07:44:42;;;;;;;4.63;2.37;;;;;;;;;;10204893;28;20719;-75
2023/03/01 07:49:43;;;;;;;3.67;3.03;;;;;;;;;;10203372;28;20923;-75
2023/03/01 07:54:44;;;;;;;12.17;3.20;;;;;;;;;;10216944;28;20222;-73
2023/03/01 07:59:45;;;;;;;6.17;4.00;;;;;;;;;;10208856;28;20917;-76
2023/03/01 08:04:47;;;;;;;4.00;3.40;;;;;;;;;;10203627;28;20309;-75
2023/03/01 08:09:48;;;;;;;3.80;3.40;;;;;;;;;;10205737;28;20218;-75
2023/03/01 08:14:49;;;;;;;8.65;4.35;;;;;;;;;;10169903;28;20218;-71
2023/03/01 08:19:51;;;;;;;2.80;2.60;;;;;;;;;;10205278;28;20958;-76
2023/03/01 08:24:52;;;;;;;5.78;3.50;;;;;;;;;;10207930;28;20214;-74
2023/03/01 08:29:53;;;;;;;6.45;3.33;;;;;;;;;;10206606;28;20214;-71
2023/03/01 08:34:54;;;;;;;3.60;2.83;;;;;;;;;;10208668;28;20271;-75
2023/03/01 08:39:55;;;;;;;4.30;2.67;;;;;;;;;;10205336;28;20211;-75
2023/03/01 08:44:56;;;;;;;4.20;2.70;;;;;;;;;;10208378;28;20220;-72
2023/03/01 08:49:58;;;;;;;3.45;2.85;;;;;;;;;;10206467;28;20221;-73
2023/03/01 08:55:01;;;;;;;2.93;2.63;;;;;;;;;;10208964;28;20258;-74
2023/03/01 09:00:03;;;;;;;6.18;3.28;;;;;;;;;;10207903;28;20222;-75
2023/03/01 09:05:04;;;;;;;6.13;3.30;;;;;;;;;;10206672;28;20865;-75
2023/03/01 09:10:06;;;;;;;2.80;2.60;;;;;;;;;;10208084;28;20209;-76
2023/03/01 09:15:07;;;;;;;3.03;2.75;;;;;;;;;;10206302;28;20343;-74
2023/03/01 09:20:08;;;;;;;3.30;3.10;;;;;;;;;;10207333;28;20198;-72
2023/03/01 09:25:09;;;;;;;5.40;3.28;;;;;;;;;;10205983;28;20635;-73
2023/03/01 09:30:11;;;;;;;2.78;2.67;;;;;;;;;;10194414;28;20206;-75
2023/03/01 09:35:12;;;;;;;4.35;3.25;;;;;;;;;;10211520;28;20202;-74
2023/03/01 09:40:16;;;;;;;5.82;4.32;;;;;;;;;;10213103;28;20289;-74
2023/03/01 09:45:30;;;;;;;4.15;3.42;;;;;;;;;;10211992;28;20418;-76
2023/03/01 09:50:35;;;;;;;5.05;3.75;;;;;;;;;;10196175;28;20222;-76
2023/03/01 09:55:48;;;;;;;3.80;3.28;;;;;;;;;;10213671;28;20242;-74
2023/03/01 10:00:50;;;;;;;3.75;2.85;;;;;;;;;;10214497;28;20339;-76
2023/03/01 10:06:00;;;;;;;4.88;2.75;;;;;;;;;;10217502;28;20285;-75
2023/03/01 10:11:01;;;;;;;3.53;2.53;;;;;;;;;;10195081;28;20270;-75
2023/03/01 10:16:06;;;;;;;3.03;2.72;;;;;;;;;;10202804;28;20222;-73
2023/03/01 10:21:16;;;;;;;4.60;3.28;;;;;;;;;;10198415;28;20226;-75
2023/03/01 10:26:20;;;;;;;4.47;2.90;;;;;;;;;;10205755;28;20218;-75
2023/03/01 10:31:27;;;;;;;4.22;2.60;;;;;;;;;;10204917;28;20589;-76
2023/03/01 10:36:33;;;;;;;3.38;2.97;;;;;;;;;;10198919;28;20301;-75
2023/03/01 10:41:34;;;;;;;3.65;3.13;;;;;;;;;;10201536;28;20214;-74
2023/03/01 10:46:38;;;;;;;2.85;2.65;;;;;;;;;;10205271;28;20275;-75
2023/03/01 10:51:40;;;;;;;3.58;2.60;;;;;;;;;;10210060;28;20218;-75
2023/03/01 10:56:49;;;;;;;2.80;2.70;;;;;;;;;;10193916;28;20246;-75
2023/03/01 11:02:02;;;;;;;4.70;3.28;;;;;;;;;;10211923;28;20252;-76
2023/03/01 11:07:03;;;;;;;2.90;2.70;;;;;;;;;;10209811;28;20215;-76
2023/03/01 11:12:12;;;;;;;3.40;2.67;;;;;;;;;;10209660;28;20221;-75
2023/03/01 11:17:18;;;;;;;2.72;2.53;;;;;;;;;;10216990;28;20229;-75
2023/03/01 11:22:21;;;;;;;3.83;2.50;;;;;;;;;;10209889;28;20780;-77
2023/03/01 11:27:25;;;;;;;3.90;2.58;;;;;;;;;;10213360;28;20223;-76
2023/03/01 11:32:28;;;;;;;2.10;2.00;;;;;;;;;;10194284;28;20303;-75
2023/03/01 11:37:33;;;;;;;2.85;2.28;;;;;;;;;;10210412;28;20223;-75
2023/03/01 11:42:49;;;;;;;4.10;2.97;;;;;;;;;;10194179;28;20808;-74
2023/03/01 11:48:02;;;;;;;2.20;2.00;;;;;;;;;;10212530;28;20226;-75
2023/03/01 11:53:12;;;;;;;3.40;2.10;;;;;;;;;;10208020;28;20211;-77
2023/03/01 11:58:32;;;;;;;2.55;2.38;;;;;;;;;;10206862;28;20222;-73
2023/03/01 12:03:46;;;;;;;1.83;1.73;;;;;;;;;;10211857;28;20218;-75
2023/03/01 12:09:05;;;;;;;3.63;3.00;;;;;;;;;;10215065;28;20237;-75
2023/03/01 12:14:25;;;;;;;3.22;2.28;;;;;;;;;;10216490;28;20221;-76
2023/03/01 12:19:35;;;;;;;2.40;2.30;;;;;;;;;;10213188;28;20219;-76
2023/03/01 12:24:45;;;;;;;2.67;2.00;;;;;;;;;;10203483;28;20325;-74
2023/03/01 12:29:55;;;;;;;1.83;1.73;;;;;;;;;;10206184;28;20307;-77
2023/03/01 12:35:12;;;;;;;2.20;2.10;;;;;;;;;;10204776;28;20234;-77
2023/03/01 12:40:32;;;;;;;2.08;1.95;;;;;;;;;;10220186;28;20745;-75
2023/03/01 12:45:50;;;;;;;2.28;2.08;;;;;;;;;;10199411;28;20217;-78
2023/03/01 12:50:56;;;;;;;2.35;2.20;;;;;;;;;;10218795;28;20214;-76
2023/03/01 12:56:01;;;;;;;2.70;2.20;;;;;;;;;;10202598;28;20227;-77
2023/03/01 13:01:15;;;;;;;2.95;2.08;;;;;;;;;;10208690;28;20936;-77
2023/03/01 13:06:24;;;;;;;3.22;2.20;;;;;;;;;;10205278;28;20254;-75
2023/03/01 13:11:25;;;;;;;2.03;1.92;;;;;;;;;;10205482;28;20815;-76
2023/03/01 13:16:29;;;;;;;3.78;1.90;;;;;;;;;;10206504;28;20218;-76
2023/03/01 13:21:31;;;;;;;2.40;2.20;;;;;;;;;;10221329;28;20314;-77
2023/03/01 13:26:52;;;;;;;4.03;2.20;;;;;;;;;;10196568;28;20881;-77
2023/03/01 13:31:57;;;;;;;3.13;2.08;;;;;;;;;;10202589;28;20218;-78
2023/03/01 13:37:09;;;;;;;2.00;1.90;;;;;;;;;;10205195;28;20217;-76
2023/03/01 13:42:31;;;;;;;2.08;1.98;;;;;;;;;;10212511;28;20741;-76
2023/03/01 13:47:34;;;;;;;1.65;1.55;;;;;;;;;;10199027;28;20237;-77
2023/03/01 13:52:39;;;;;;;2.35;2.13;;;;;;;;;;10202418;28;20214;-76
2023/03/01 13:57:42;;;;;;;1.85;1.75;;;;;;;;;;10205025;28;20213;-74
2023/03/01 14:02:43;;;;;;;2.08;1.80;;;;;;;;;;10209500;28;20312;-75
2023/03/01 14:07:51;;;;;;;1.77;1.67;;;;;;;;;;10207393;28;20305;-77
2023/03/01 14:13:16;;;;;;;1.95;1.75;;;;;;;;;;10208898;28;20221;-77
2023/03/01 14:18:25;;;;;;;1.58;1.42;;;;;;;;;;10171751;28;20242;-77
2023/03/01 14:23:27;;;;;;;4.45;1.60;;;;;;;;;;10206063;28;20268;-77
2023/03/01 14:28:29;;;;;;;3.22;1.48;;;;;;;;;;10201593;28;20674;-77
2023/03/01 14:33:36;;;;;;;1.80;1.80;;;;;;;;;;10200658;28;20225;-76
2023/03/01 14:38:44;;;;;;;1.58;1.52;;;;;;;;;;10200119;28;20214;-73
2023/03/01 14:43:47;;;;;;;1.67;1.48;;;;;;;;;;10203778;28;20620;-75
2023/03/01 14:48:50;;;;;;;2.78;2.20;;;;;;;;;;10186978;28;20230;-76
2023/03/01 14:53:52;;;;;;;1.58;1.48;;;;;;;;;;10210603;28;20333;-76
2023/03/01 14:58:54;;;;;;;3.42;1.60;;;;;;;;;;10191550;28;21012;-78
2023/03/01 15:03:55;;;;;;;4.15;1.58;;;;;;;;;;10187615;28;20206;-77
2023/03/01 15:08:59;;;;;;;1.40;1.30;;;;;;;;;;10203407;28;20752;-77
2023/03/01 15:14:00;;;;;;;2.03;1.90;;;;;;;;;;10199214;28;20230;-77
2023/03/01 15:19:04;;;;;;;7.63;2.08;;;;;;;;;;10176549;28;20760;-77
2023/03/01 15:24:25;;;;;;;2.17;1.98;;;;;;;;;;10191188;28;20209;-77
2023/03/01 15:29:29;;;;;;;2.53;1.23;;;;;;;;;;10201535;28;20621;-77
2023/03/01 15:34:32;;;;;;;1.25;1.23;;;;;;;;;;10204652;28;20233;-76
2023/03/01 15:39:42;;;;;;;1.50;1.40;;;;;;;;;;10194196;28;20236;-77
2023/03/01 15:44:45;;;;;;;1.92;1.30;;;;;;;;;;10197798;28;20258;-77
2023/03/01 15:49:46;;;;;;;1.63;1.40;;;;;;;;;;10208084;28;20222;-78
2023/03/01 15:54:47;;;;;;;1.35;0.90;;;;;;;;;;10201978;28;20215;-76
2023/03/01 15:59:49;;;;;;;0.73;0.73;;;;;;;;;;10198076;28;20937;-76
2023/03/01 16:04:50;;;;;;;1.10;1.10;;;;;;;;;;10203514;28;20224;-74
2023/03/01 16:09:51;;;;;;;2.60;1.30;;;;;;;;;;10206879;28;20378;-75
2023/03/01 16:14:52;;;;;;;1.30;1.30;;;;;;;;;;10207445;28;20225;-75
2023/03/01 16:19:54;;;;;;;1.38;1.02;;;;;;;;;;10198593;28;20578;-73
2023/03/01 16:24:55;;;;;;;1.10;0.98;;;;;;;;;;10210134;28;20222;-74
2023/03/01 16:29:56;;;;;;;1.50;1.10;;;;;;;;;;10206563;28;20228;-72
2023/03/01 16:34:57;;;;;;;0.75;0.75;;;;;;;;;;10213505;28;20227;-74
2023/03/01 16:39:58;;;;;;;0.80;0.80;;;;;;;;;;10221235;28;20258;-75
2023/03/01 16:45:00;;;;;;;2.25;1.38;;;;;;;;;;10216273;28;20305;-74
2023/03/01 16:50:04;;;;;;;1.13;1.02;;;;;;;;;;10198810;28;20222;-76
2023/03/01 16:55:09;;;;;;;3.25;1.33;;;;;;;;;;10209847;28;20226;-75
2023/03/01 17:00:12;;;;;;;1.10;1.00;;;;;;;;;;10187984;28;20218;-77
2023/03/01 17:05:13;;;;;;;2.75;1.20;;;;;;;;;;10209105;28;20183;-76
2023/03/01 17:10:14;;;;;;;1.42;1.33;;;;;;;;;;10214460;28;20198;-77
2023/03/01 17:15:16;;;;;;;1.17;1.05;;;;;;;;;;10211107;28;20215;-76
2023/03/01 17:20:17;;;;;;;1.73;1.63;;;;;;;;;;10210923;28;20694;-74
2023/03/01 17:25:18;;;;;;;1.80;0.93;;;;;;;;;;10209498;28;20190;-76
2023/03/01 17:30:19;;;;;;;0.85;0.85;;;;;;;;;;10215072;28;20910;-77
2023/03/01 17:35:20;;;;;;;2.63;1.30;;;;;;;;;;10212037;28;20321;-77
2023/03/01 17:40:22;;;;;;;1.55;1.45;;;;;;;;;;10206945;28;20680;-75
2023/03/01 17:45:23;;;;;;;2.10;1.23;;;;;;;;;;10210471;28;20225;-77
2023/03/01 17:50:24;;;;;;;2.80;2.17;;;;;;;;;;10209850;28;20274;-75
2023/03/01 17:55:25;;;;;;;1.88;1.77;;;;;;;;;;10191577;28;20249;-76
2023/03/01 18:00:26;;;;;;;2.65;1.55;;;;;;;;;;10216937;28;21001;-78
2023/03/01 18:05:30;;;;;;;3.03;2.40;;;;;;;;;;10206204;28;20221;-77
2023/03/01 18:10:33;;;;;;;3.70;2.72;;;;;;;;;;10187117;28;20227;-72
2023/03/01 18:15:34;;;;;;;3.60;2.80;;;;;;;;;;10206794;28;20234;-74
2023/03/01 18:20:35;;;;;;;4.40;2.92;;;;;;;;;;10206457;28;20214;-73
2023/03/01 18:25:39;;;;;;;4.03;2.72;;;;;;;;;;10203791;28;20712;-74
2023/03/01 18:30:40;;;;;;;4.88;2.95;;;;;;;;;;10198642;28;20233;-75
2023/03/01 18:35:41;;;;;;;4.90;3.50;;;;;;;;;;10200753;28;20218;-75
2023/03/01 18:40:44;;;;;;;8.10;3.70;;;;;;;;;;10202974;28;20258;-74
2023/03/01 18:45:45;;;;;;;2.97;2.40;;;;;;;;;;10198178;28;20230;-74
2023/03/01 18:50:46;;;;;;;5.53;3.30;;;;;;;;;;10215436;28;20238;-77
2023/03/01 18:55:47;;;;;;;4.13;3.53;;;;;;;;;;10202025;28;20244;-75
2023/03/01 19:00:49;;;;;;;2.85;2.65;;;;;;;;;;10216523;28;20226;-75
2023/03/01 19:05:50;;;;;;;5.32;4.20;;;;;;;;;;10206724;28;20304;-75
2023/03/01 19:11:01;;;;;;;5.82;3.70;;;;;;;;;;10201867;28;20877;-78
2023/03/01 19:16:04;;;;;;;7.38;3.70;;;;;;;;;;10212243;28;20312;-77
2023/03/01 19:21:05;;;;;;;8.00;4.65;;;;;;;;;;10216071;28;20818;-74
2023/03/01 19:26:08;;;;;;;5.05;4.00;;;;;;;;;;10204406;28;20325;-76
2023/03/01 19:31:17;;;;;;;8.43;4.22;;;;;;;;;;10190303;28;20247;-77
2023/03/01 19:36:20;;;;;;;5.35;3.72;;;;;;;;;;10211143;28;20318;-75
2023/03/01 19:41:21;;;;;;;6.45;4.47;;;;;;;;;;10204796;28;20230;-77
2023/03/01 19:46:24;;;;;;;6.75;4.90;;;;;;;;;;10207717;28;20815;-76
2023/03/01 19:51:26;;;;;;;7.30;5.25;;;;;;;;;;10198732;28;20726;-74
2023/03/01 19:56:27;;;;;;;7.68;4.97;;;;;;;;;;10208043;28;20274;-76
2023/03/01 20:01:28;;;;;;;8.32;4.38;;;;;;;;;;10192737;28;20237;-75
2023/03/01 20:06:30;;;;;;;6.63;3.97;;;;;;;;;;10206721;28;20257;-76
2023/03/01 20:11:31;;;;;;;6.13;5.03;;;;;;;;;;10210223;28;20350;-75
2023/03/01 20:16:32;;;;;;;6.55;4.28;;;;;;;;;;10189980;28;20238;-77
2023/03/01 20:21:34;;;;;;;14.48;6.50;;;;;;;;;;10203848;28;20222;-78
2023/03/01 20:26:35;;;;;;;10.88;5.95;;;;;;;;;;10206424;28;20242;-73
2023/03/01 20:31:38;;;;;;;11.33;5.43;;;;;;;;;;10205023;28;20225;-76
2023/03/01 20:36:40;;;;;;;10.20;5.43;;;;;;;;;;10184423;28;20210;-76
2023/03/01 20:41:41;;;;;;;9.60;5.90;;;;;;;;;;10195467;28;20223;-73
2023/03/01 20:46:42;;;;;;;11.57;5.88;;;;;;;;;;10199249;28;20820;-72
2023/03/01 20:51:44;;;;;;;10.93;4.15;;;;;;;;;;10202577;28;20215;-72
2023/03/01 20:56:45;;;;;;;9.25;4.28;;;;;;;;;;10204247;28;20260;-75
2023/03/01 21:01:46;;;;;;;10.77;4.88;;;;;;;;;;10196912;28;20246;-74
2023/03/01 21:06:47;;;;;;;4.47;3.22;;;;;;;;;;10194116;28;20211;-72
2023/03/01 21:11:49;;;;;;;5.90;3.58;;;;;;;;;;10211373;28;20614;-74
2023/03/01 21:16:50;;;;;;;8.75;4.28;;;;;;;;;;10201406;28;20241;-74
2023/03/01 21:21:52;;;;;;;5.53;3.28;;;;;;;;;;10214613;28;20214;-72
2023/03/01 21:26:53;;;;;;;5.37;3.83;;;;;;;;;;10212485;28;20219;-71
2023/03/01 21:31:54;;;;;;;6.87;3.47;;;;;;;;;;10212781;28;20225;-75
2023/03/01 21:36:55;;;;;;;3.65;3.05;;;;;;;;;;10213020;28;20338;-74
2023/03/01 21:41:57;;;;;;;6.43;3.67;;;;;;;;;;10198194;28;20223;-72
2023/03/01 21:46:59;;;;;;;8.65;3.22;;;;;;;;;;10209716;28;20242;-74
2023/03/01 21:52:00;;;;;;;4.80;3.72;;;;;;;;;;10211987;28;20226;-71
2023/03/01 21:57:01;;;;;;;5.70;2.88;;;;;;;;;;10227884;28;20211;-74
2023/03/01 22:02:02;;;;;;;4.37;3.27;;;;;;;;;;10216612;28;20237;-74
2023/03/01 22:07:03;;;;;;;6.80;2.90;;;;;;;;;;10184012;28;20815;-74
2023/03/01 22:12:04;;;;;;;3.20;2.20;;;;;;;;;;10211110;28;20303;-73
2023/03/01 22:17:06;;;;;;;4.03;2.90;;;;;;;;;;10207166;28;20257;-72
2023/03/01 22:22:07;;;;;;;4.77;3.30;;;;;;;;;;10208954;28;20225;-74
2023/03/01 22:27:08;;;;;;;4.80;2.70;;;;;;;;;;10199002;28;20246;-73
2023/03/01 22:32:09;;;;;;;2.70;2.03;;;;;;;;;;10205836;28;20288;-74
2023/03/01 22:37:10;;;;;;;2.37;2.27;;;;;;;;;;10213090;28;20264;-72
2023/03/01 22:42:11;;;;;;;6.57;2.90;;;;;;;;;;10207306;28;20227;-74
2023/03/01 22:47:12;;;;;;;5.93;3.67;;;;;;;;;;10206621;28;20230;-73
2023/03/01 22:52:13;;;;;;;7.57;4.27;;;;;;;;;;10198329;28;20904;-74
2023/03/01 22:57:14;;;;;;;5.80;4.47;;;;;;;;;;10213508;28;20214;-75
2023/03/01 23:02:16;;;;;;;9.53;5.23;;;;;;;;;;10210120;28;20230;-72
2023/03/01 23:07:17;;;;;;;6.13;4.40;;;;;;;;;;10210063;28;20218;-74
2023/03/01 23:12:18;;;;;;;8.23;4.90;;;;;;;;;;10206269;28;20222;-74
2023/03/01 23:17:19;;;;;;;9.63;5.17;;;;;;;;;;10215429;28;20198;-72
2023/03/01 23:22:20;;;;;;;7.68;4.47;;;;;;;;;;10219626;28;20708;-75
2023/03/01 23:27:21;;;;;;;8.00;4.43;;;;;;;;;;10210463;28;20913;-73
2023/03/01 23:32:22;;;;;;;12.30;4.67;;;;;;;;;;10205713;28;20225;-74
2023/03/01 23:37:28;;;;;;;9.10;4.90;;;;;;;;;;10216979;28;20202;-73
2023/03/01 23:42:29;;;;;;;10.80;4.63;;;;;;;;;;10213818;28;20234;-74
2023/03/01 23:47:30;;;;;;;5.93;3.80;;;;;;;;;;10209178;28;20237;-76
2023/03/01 23:52:37;;;;;;;5.27;3.40;;;;;;;;;;10215338;28;20219;-72
2023/03/01 23:57:39;;;;;;;4.43;3.50;;;;;;;;;;10217106;28;20828;-75
